LZPP

Details ICAO LZPP (PZY)
Name PIESTANY
Region Slovakia
Timezone Europe/Bratislava (UTC+1.0)
Plans Departing 24
Arriving 13
Stats Elevation 545 ft / 166 m (AMSL)
Location 48.625246° 17.828443°
Runways 1
Magnetic Variation 4.585° E
Sunrise 2017-12-16 06:36:38 UTC / 2017-12-16 07:36:38 Local
Sunset 2017-12-16 14:54:43 UTC / 2017-12-16 15:54:43 Local
Advertisement - Login to hide

Runways

ID Width Length Bearing (true) Bearing (mag) Surface Threshold Offset Overrun Length
01 98 ft / 30 m 6,560 ft / 1,999 m 13.71° 9.12° Asphalt 0 ft / 0 m 0 ft / 0 m
19 98 ft / 30 m 6,560 ft / 1,999 m 193.72° 189.13° Asphalt 0 ft / 0 m 0 ft / 0 m

Approach Navaids

Runway Type Ident Frequency Range Bearing (true) Bearing (mag) Slope Elevation
01 Localiser CN 109.30 MHz 18 nm / 33 km 13.97° 9.39° - 535 ft / 163 m (AMSL)
01 Glidescope CN 109.30 MHz 10 nm / 19 km 13.71° 9.13° 3.00° 535 ft / 163 m (AMSL)
01 DME CN 109.30 MHz 18 nm / 33 km - - - 561 ft / 171 m (AMSL)

Map

Weather


0- 5 10 15 20 25 30 35+ Temperature / ° C

Clouds and Precipitation
Forecast for 2017-12-16 12:00 UTC. Updated 2 hours ago

Ground ~20,000 ft ~40,000 ft Winds

METAR

LZPP 160900Z 16001KT 9999 FEW033 02/M00 Q1004

TAF

Not found

Frequencies

Tower 125.45 MHz TWR
Warning: Do not use this data for real-world aviation or navigation. No guarantee of current accuracy is given.